createdAt,value
2023-11-23T00:00:56.338Z,31.90
2023-11-23T00:05:57.573Z,30.23
2023-11-23T00:10:58.832Z,30.45
2023-11-23T00:16:00.117Z,32.50
2023-11-23T00:21:01.407Z,31.48
2023-11-23T00:26:02.663Z,34.20
2023-11-23T00:31:03.928Z,32.55
2023-11-23T00:36:05.369Z,38.38
2023-11-23T00:41:06.759Z,38.40
2023-11-23T00:46:07.984Z,33.20
2023-11-23T00:51:09.322Z,36.10
2023-11-23T00:56:10.654Z,36.03
2023-11-23T01:01:15.786Z,42.22
2023-11-23T01:06:17.124Z,34.67
2023-11-23T01:11:18.385Z,41.13
2023-11-23T01:16:19.639Z,43.30
2023-11-23T01:21:20.919Z,44.13
2023-11-23T01:26:22.200Z,36.20
2023-11-23T01:31:23.476Z,38.67
2023-11-23T01:36:24.698Z,32.92
2023-11-23T01:41:25.961Z,31.15
2023-11-23T01:46:27.213Z,36.15
2023-11-23T01:51:28.558Z,38.80
2023-11-23T01:56:30.789Z,41.33
2023-11-23T02:01:32.096Z,36.45
2023-11-23T02:06:33.352Z,34.47
2023-11-23T02:11:35.220Z,32.55
2023-11-23T02:16:36.501Z,27.95
2023-11-23T02:21:37.820Z,29.23
2023-11-23T02:26:39.042Z,28.98
2023-11-23T02:31:40.289Z,36.70
2023-11-23T02:36:41.539Z,29.10
2023-11-23T02:41:43.243Z,29.70
2023-11-23T02:46:44.511Z,30.08
2023-11-23T02:51:46.020Z,31.92
2023-11-23T02:56:47.311Z,29.23
2023-11-23T03:01:48.691Z,26.52
2023-11-23T03:06:50.014Z,35.30
2023-11-23T03:11:51.343Z,27.98
2023-11-23T03:16:52.853Z,30.50
2023-11-23T03:21:54.188Z,27.58
2023-11-23T03:26:55.543Z,29.50
2023-11-23T03:31:56.852Z,24.17
2023-11-23T03:36:58.269Z,27.33
2023-11-23T03:41:59.532Z,25.63
2023-11-23T03:47:00.779Z,31.55
2023-11-23T03:52:02.208Z,35.30
2023-11-23T03:57:03.724Z,27.02
2023-11-23T04:02:05.113Z,27.13
2023-11-23T04:07:06.440Z,31.15
2023-11-23T04:12:07.748Z,32.85
2023-11-23T04:17:09.055Z,28.60
2023-11-23T04:22:10.419Z,25.05
2023-11-23T04:27:11.758Z,27.35
2023-11-23T04:32:13.114Z,26.92
2023-11-23T04:37:14.350Z,24.42
2023-11-23T04:42:15.680Z,21.80
2023-11-23T04:47:16.960Z,26.05
2023-11-23T04:52:18.257Z,26.55
2023-11-23T04:57:19.690Z,20.13
2023-11-23T05:02:20.939Z,22.83
2023-11-23T05:07:22.187Z,22.13
2023-11-23T05:12:23.521Z,20.45
2023-11-23T05:17:24.814Z,18.08
2023-11-23T05:22:26.065Z,18.30
2023-11-23T05:27:27.376Z,14.25
2023-11-23T05:32:28.684Z,16.45
2023-11-23T05:37:29.957Z,21.25
2023-11-23T05:42:31.323Z,15.27
2023-11-23T05:47:32.638Z,18.63
2023-11-23T05:52:33.964Z,23.42
2023-11-23T05:57:35.329Z,21.08
2023-11-23T06:02:36.650Z,14.15
2023-11-23T06:07:37.925Z,16.13
2023-11-23T06:12:39.444Z,13.77
2023-11-23T06:17:40.713Z,9.73
2023-11-23T06:22:41.964Z,16.83
2023-11-23T06:27:43.250Z,16.55
2023-11-23T06:32:44.629Z,13.50
2023-11-23T06:37:45.860Z,17.58
2023-11-23T06:42:47.073Z,11.75
2023-11-23T06:47:48.405Z,11.95
2023-11-23T06:52:49.708Z,16.15
2023-11-23T06:57:50.997Z,11.07
2023-11-23T07:02:59.380Z,9.77
2023-11-23T07:08:00.650Z,19.52
2023-11-23T07:13:01.862Z,7.30
2023-11-23T07:18:03.261Z,13.13
2023-11-23T07:23:04.509Z,9.20
2023-11-23T07:28:05.731Z,18.52
2023-11-23T07:33:07.486Z,10.65
2023-11-23T07:38:08.880Z,12.90
2023-11-23T07:43:10.113Z,6.32
2023-11-23T07:48:11.441Z,8.75
2023-11-23T07:53:12.723Z,13.82
2023-11-23T07:58:14.056Z,10.50
2023-11-23T08:03:15.334Z,14.90
2023-11-23T08:08:16.597Z,8.00
2023-11-23T08:13:17.846Z,17.30
2023-11-23T08:18:19.121Z,8.32
2023-11-23T08:23:20.397Z,7.82
2023-11-23T08:28:21.709Z,8.68
2023-11-23T08:33:23.026Z,7.72
2023-11-23T08:38:24.271Z,13.15
2023-11-23T08:43:25.493Z,11.73
2023-11-23T08:48:26.821Z,19.33
2023-11-23T08:53:28.061Z,8.93
2023-11-23T08:58:29.803Z,11.68
2023-11-23T09:03:31.288Z,11.40
2023-11-23T09:08:32.594Z,6.30
2023-11-23T09:13:33.810Z,14.85
2023-11-23T09:18:35.179Z,8.68
2023-11-23T09:23:36.451Z,12.38
2023-11-23T09:28:37.676Z,12.52
2023-11-23T09:33:38.964Z,7.68
2023-11-23T09:38:40.231Z,9.40
2023-11-23T09:43:42.319Z,7.57
2023-11-23T09:48:44.901Z,9.18
2023-11-23T09:53:47.029Z,7.13
2023-11-23T09:58:48.686Z,9.00
2023-11-23T10:03:53.691Z,8.75
2023-11-23T10:08:55.007Z,13.82
2023-11-23T10:13:56.239Z,10.60
2023-11-23T10:18:57.570Z,11.15
2023-11-23T10:24:07.921Z,11.30
2023-11-23T10:29:09.189Z,6.88
2023-11-23T10:34:11.037Z,6.43
2023-11-23T10:39:12.967Z,8.38
2023-11-23T10:44:14.257Z,14.75
2023-11-23T10:49:16.970Z,11.45
2023-11-23T10:54:18.252Z,9.52
2023-11-23T10:59:21.147Z,7.18
2023-11-23T11:04:23.214Z,7.80
2023-11-23T11:09:27.407Z,12.43
2023-11-23T11:14:34.475Z,7.07
2023-11-23T11:20:01.831Z,9.38
2023-11-23T11:25:03.185Z,5.88
2023-11-23T11:30:04.678Z,6.63
2023-11-23T11:35:08.497Z,9.57
2023-11-23T11:40:10.193Z,12.95
2023-11-23T11:45:11.426Z,13.48
2023-11-23T11:50:12.670Z,11.95
2023-11-23T11:55:13.892Z,11.45
2023-11-23T12:00:15.281Z,8.70
2023-11-23T12:05:16.505Z,8.07
2023-11-23T12:10:17.751Z,7.20
2023-11-23T12:15:19.249Z,12.35
2023-11-23T12:20:20.613Z,6.75
2023-11-23T12:25:21.835Z,5.78
2023-11-23T12:30:23.060Z,8.85
2023-11-23T12:35:25.329Z,9.75
2023-11-23T12:40:27.659Z,6.45
2023-11-23T12:45:28.945Z,6.82
2023-11-23T12:50:30.441Z,9.88
2023-11-23T12:55:31.685Z,4.68
2023-11-23T13:00:33.021Z,7.57
2023-11-23T13:05:34.257Z,8.48
2023-11-23T13:10:35.493Z,14.75
2023-11-23T13:15:36.758Z,8.93
2023-11-23T13:20:37.983Z,10.18
2023-11-23T13:25:39.213Z,8.10
2023-11-23T13:30:40.521Z,13.80
2023-11-23T13:35:41.770Z,7.63
2023-11-23T13:40:43.018Z,10.70
2023-11-23T13:45:44.315Z,10.70
2023-11-23T13:50:45.596Z,14.73
2023-11-23T13:55:47.199Z,12.05
2023-11-23T14:00:48.502Z,8.38
2023-11-23T14:05:49.729Z,9.23
2023-11-23T14:10:50.999Z,6.07
2023-11-23T14:15:53.270Z,8.07
2023-11-23T14:20:54.587Z,9.38
2023-11-23T14:25:55.869Z,10.30
2023-11-23T14:30:57.072Z,11.63
2023-11-23T14:35:58.490Z,14.60
2023-11-23T14:40:59.797Z,14.57
2023-11-23T14:46:01.116Z,11.55
2023-11-23T14:51:02.450Z,10.88
2023-11-23T14:56:03.846Z,12.25
2023-11-23T15:01:05.760Z,9.43
2023-11-23T15:06:07.134Z,13.82
2023-11-23T15:11:08.376Z,14.00
2023-11-23T15:16:09.899Z,13.75
2023-11-23T15:21:11.241Z,18.77
2023-11-23T15:26:12.495Z,16.95
2023-11-23T15:31:13.987Z,19.10
2023-11-23T15:36:15.322Z,13.52
2023-11-23T15:41:16.581Z,16.15
2023-11-23T15:46:17.861Z,23.60
2023-11-23T15:51:19.444Z,12.23
2023-11-23T15:56:23.357Z,16.08
2023-11-23T16:01:27.046Z,21.33
2023-11-23T16:06:28.329Z,9.77
2023-11-23T16:11:29.567Z,14.68
2023-11-23T16:16:30.828Z,20.27
2023-11-23T16:21:32.109Z,14.88
2023-11-23T16:26:33.401Z,19.20
2023-11-23T16:31:34.661Z,14.82
2023-11-23T16:36:39.785Z,14.15
2023-11-23T16:41:41.881Z,15.02
2023-11-23T16:46:43.737Z,9.07
2023-11-23T16:51:45.017Z,12.07
2023-11-23T16:56:46.351Z,14.93
2023-11-23T17:01:47.935Z,18.90
2023-11-23T17:06:49.237Z,14.68
2023-11-23T17:11:50.535Z,21.60
2023-11-23T17:16:51.807Z,26.70
2023-11-23T17:21:53.607Z,18.00
2023-11-23T17:26:54.861Z,23.88
2023-11-23T17:31:56.118Z,15.40
2023-11-23T17:36:57.332Z,20.52
2023-11-23T17:41:58.555Z,27.67
2023-11-23T17:46:59.818Z,11.85
2023-11-23T17:52:01.065Z,19.75
2023-11-23T17:57:02.299Z,12.82
2023-11-23T18:02:03.996Z,11.77
2023-11-23T18:07:05.281Z,10.75
2023-11-23T18:12:06.837Z,14.70
2023-11-23T18:17:08.392Z,10.00
2023-11-23T18:22:09.866Z,12.70
2023-11-23T18:27:11.181Z,17.38
2023-11-23T18:32:12.403Z,11.65
2023-11-23T18:37:13.657Z,12.65
2023-11-23T18:42:14.888Z,18.02
2023-11-23T18:47:16.169Z,17.42
2023-11-23T18:52:17.409Z,12.75
2023-11-23T18:57:18.724Z,14.27
2023-11-23T19:02:20.204Z,11.25
2023-11-23T19:07:21.529Z,13.00
2023-11-23T19:12:22.951Z,11.05
2023-11-23T19:17:24.245Z,13.18
2023-11-23T19:22:25.695Z,16.17
2023-11-23T19:27:27.106Z,14.40
2023-11-23T19:32:28.441Z,19.70
2023-11-23T19:37:29.833Z,11.82
2023-11-23T19:42:33.171Z,14.05
2023-11-23T19:47:34.593Z,27.25
2023-11-23T19:52:38.850Z,15.73
2023-11-23T19:57:40.583Z,13.88
2023-11-23T20:02:42.092Z,18.40
2023-11-23T20:07:43.343Z,13.88
2023-11-23T20:12:44.608Z,13.60
2023-11-23T20:17:45.877Z,18.02
2023-11-23T20:22:47.148Z,14.70
2023-11-23T20:27:48.392Z,17.60
2023-11-23T20:32:49.651Z,9.98
2023-11-23T20:37:51.890Z,11.40
2023-11-23T20:42:54.171Z,10.93
2023-11-23T20:47:55.482Z,14.65
2023-11-23T20:52:56.776Z,12.63
2023-11-23T20:57:58.174Z,13.38
2023-11-23T21:03:00.187Z,18.80
2023-11-23T21:08:01.706Z,12.98
2023-11-23T21:13:03.031Z,12.13
2023-11-23T21:18:04.337Z,12.88
2023-11-23T21:23:05.687Z,11.70
2023-11-23T21:28:06.961Z,9.90
2023-11-23T21:33:08.223Z,11.93
2023-11-23T21:38:09.681Z,13.35
2023-11-23T21:43:10.922Z,17.60
2023-11-23T21:48:12.305Z,13.65
2023-11-23T21:53:13.621Z,14.25
2023-11-23T21:58:14.894Z,19.55
2023-11-23T22:03:16.269Z,12.30
2023-11-23T22:08:17.570Z,17.98
2023-11-23T22:13:18.954Z,13.00
2023-11-23T22:18:20.419Z,14.88
2023-11-23T22:23:21.862Z,11.95
2023-11-23T22:28:23.316Z,12.35
2023-11-23T22:33:25.122Z,8.93
2023-11-23T22:38:26.604Z,7.63
2023-11-23T22:43:27.998Z,12.02
2023-11-23T22:48:29.283Z,13.05
2023-11-23T22:53:30.569Z,7.63
2023-11-23T22:58:31.787Z,22.45
2023-11-23T23:03:33.914Z,10.73
2023-11-23T23:08:35.202Z,13.35
2023-11-23T23:13:36.456Z,10.13
2023-11-23T23:18:37.756Z,9.45
2023-11-23T23:23:39.170Z,14.40
2023-11-23T23:28:40.392Z,18.63
2023-11-23T23:33:41.709Z,9.20
2023-11-23T23:38:44.091Z,16.83
2023-11-23T23:43:45.928Z,9.27
2023-11-23T23:48:47.237Z,9.82
2023-11-23T23:53:48.600Z,12.30
2023-11-23T23:58:49.813Z,24.05
